createdAt,value
2019-01-06T00:01:43.605Z,99765.11
2019-01-06T00:07:06.011Z,99798.58
2019-01-06T00:12:30.626Z,99795.22
2019-01-06T00:17:55.132Z,99800.48
2019-01-06T00:23:21.816Z,99801.41
2019-01-06T00:28:58.830Z,99799.02
2019-01-06T00:34:23.781Z,99815.75
2019-01-06T00:45:17.925Z,99839.70
2019-01-06T00:50:43.835Z,99844.10
2019-01-06T00:56:23.653Z,99844.55
2019-01-06T01:01:56.848Z,99853.16
2019-01-06T01:07:27.872Z,99854.20
2019-01-06T01:12:49.987Z,99861.34
2019-01-06T01:18:15.860Z,99848.61
2019-01-06T01:23:43.702Z,99849.69
2019-01-06T01:29:07.726Z,99859.48
2019-01-06T01:34:38.551Z,99858.55
2019-01-06T01:39:56.943Z,99858.61
2019-01-06T01:45:21.985Z,99863.56
2019-01-06T01:50:48.479Z,99878.18
2019-01-06T01:56:13.233Z,99877.20
2019-01-06T02:01:36.998Z,99883.49
2019-01-06T02:07:07.888Z,99895.88
2019-01-06T02:12:31.214Z,99922.77
2019-01-06T02:17:59.311Z,99901.13
2019-01-06T02:23:24.235Z,99901.83
2019-01-06T02:28:47.899Z,99897.28
2019-01-06T02:34:11.305Z,99894.39
2019-01-06T02:39:27.876Z,99897.33
2019-01-06T02:44:52.358Z,99899.86
2019-01-06T02:50:15.958Z,99907.03
2019-01-06T02:55:43.708Z,99920.64
2019-01-06T03:01:26.946Z,99928.03
2019-01-06T03:06:54.703Z,99922.38
2019-01-06T03:12:19.416Z,99928.69
2019-01-06T03:17:39.076Z,99927.42
2019-01-06T03:23:04.175Z,99921.84
2019-01-06T03:28:34.549Z,99920.64
2019-01-06T03:34:02.292Z,99921.38
2019-01-06T03:39:40.814Z,99927.89
2019-01-06T03:45:16.746Z,99912.84
2019-01-06T03:50:47.216Z,99897.25
2019-01-06T03:56:11.812Z,99888.25
2019-01-06T04:01:52.047Z,99888.36
2019-01-06T04:07:15.226Z,99896.30
2019-01-06T04:12:39.312Z,99902.29
2019-01-06T04:18:10.511Z,99896.41
2019-01-06T04:23:34.397Z,99895.73
2019-01-06T04:28:58.241Z,99900.30
2019-01-06T04:34:24.582Z,99890.84
2019-01-06T04:39:56.444Z,99896.95
2019-01-06T04:45:27.132Z,99899.67
2019-01-06T04:50:51.725Z,99899.59
2019-01-06T04:56:12.565Z,99904.16
2019-01-06T05:01:46.322Z,99907.88
2019-01-06T05:07:26.028Z,99912.87
2019-01-06T05:12:59.820Z,99915.94
2019-01-06T05:18:16.651Z,99924.46
2019-01-06T05:23:40.071Z,99929.89
2019-01-06T05:29:04.156Z,99931.63
2019-01-06T05:34:28.108Z,99927.23
2019-01-06T05:39:59.023Z,99941.56
2019-01-06T05:45:28.025Z,99947.09
2019-01-06T05:50:56.463Z,99957.41
2019-01-06T05:56:21.068Z,99960.53
2019-01-06T06:01:47.850Z,99964.98
2019-01-06T06:07:11.198Z,99973.57
2019-01-06T06:12:30.730Z,99980.42
2019-01-06T06:17:55.365Z,99981.09
2019-01-06T06:28:59.165Z,99994.91
2019-01-06T06:34:32.776Z,99997.83
2019-01-06T06:39:58.737Z,100006.16
2019-01-06T06:45:22.487Z,100011.17
2019-01-06T06:51:02.725Z,100005.04
2019-01-06T06:56:34.890Z,100025.59
2019-01-06T07:02:40.541Z,100027.48
2019-01-06T07:08:04.104Z,100029.00
2019-01-06T07:13:29.292Z,100037.89
2019-01-06T07:18:54.421Z,100056.88
2019-01-06T07:24:28.419Z,100045.33
2019-01-06T07:30:08.226Z,100059.87
2019-01-06T07:35:45.459Z,100064.09
2019-01-06T07:41:28.582Z,100070.51
2019-01-06T07:47:04.758Z,100078.09
2019-01-06T07:52:31.311Z,100083.43
2019-01-06T07:58:03.238Z,100095.81
2019-01-06T08:03:46.186Z,100107.64
2019-01-06T08:09:16.645Z,100105.47
2019-01-06T08:14:50.044Z,100109.38
2019-01-06T08:20:13.224Z,100121.80
2019-01-06T08:25:44.132Z,100124.79
2019-01-06T08:31:21.991Z,100119.16
2019-01-06T08:36:45.186Z,100127.45
2019-01-06T08:42:15.921Z,100119.59
2019-01-06T08:47:52.532Z,100126.50
2019-01-06T08:53:17.380Z,100125.47
2019-01-06T08:58:40.802Z,100136.97
2019-01-06T09:04:03.966Z,100132.45
2019-01-06T09:09:45.770Z,100141.34
2019-01-06T09:15:16.423Z,100141.55
2019-01-06T09:20:39.887Z,100143.36
2019-01-06T09:26:04.673Z,100155.13
2019-01-06T09:31:28.405Z,100151.00
2019-01-06T09:36:52.337Z,100157.58
2019-01-06T09:42:22.925Z,100160.73
2019-01-06T09:47:47.989Z,100152.61
2019-01-06T09:53:21.656Z,100158.53
2019-01-06T09:58:58.699Z,100162.77
2019-01-06T10:04:36.072Z,100170.17
2019-01-06T10:10:02.056Z,100179.30
2019-01-06T10:15:27.624Z,100162.80
2019-01-06T10:21:05.766Z,100171.48
2019-01-06T10:26:30.488Z,100190.44
2019-01-06T10:31:59.415Z,100179.72
2019-01-06T10:37:35.841Z,100180.56
2019-01-06T10:43:00.690Z,100179.98
2019-01-06T10:48:26.739Z,100174.31
2019-01-06T10:54:09.896Z,100180.53
2019-01-06T11:05:21.318Z,100167.80
2019-01-06T11:10:45.260Z,100176.17
2019-01-06T11:16:15.925Z,100182.06
2019-01-06T11:21:35.026Z,100187.88
2019-01-06T11:26:57.946Z,100184.67
2019-01-06T11:32:41.301Z,100174.61
2019-01-06T11:38:04.448Z,100178.31
2019-01-06T11:43:34.690Z,100180.09
2019-01-06T11:48:59.818Z,100178.20
2019-01-06T11:54:36.835Z,100170.43
2019-01-06T12:00:16.561Z,100161.49
2019-01-06T12:05:41.876Z,100157.40
2019-01-06T12:11:06.762Z,100164.09
2019-01-06T12:16:39.333Z,100165.05
2019-01-06T12:22:16.428Z,100162.37
2019-01-06T12:27:43.950Z,100160.01
2019-01-06T12:33:10.121Z,100161.73
2019-01-06T12:38:48.138Z,100172.25
2019-01-06T12:44:14.314Z,100182.89
2019-01-06T12:49:38.315Z,100187.72
2019-01-06T12:55:10.868Z,100192.39
2019-01-06T13:00:37.144Z,100182.83
2019-01-06T13:06:02.424Z,100179.94
2019-01-06T13:11:28.200Z,100187.83
2019-01-06T13:17:01.808Z,100193.37
2019-01-06T13:27:58.367Z,100201.59
2019-01-06T13:33:35.645Z,100210.67
2019-01-06T13:39:02.062Z,100209.09
2019-01-06T13:44:35.928Z,100215.73
2019-01-06T13:50:02.778Z,100218.59
2019-01-06T13:55:43.371Z,100225.47
2019-01-06T14:01:07.695Z,100225.17
2019-01-06T14:06:33.690Z,100224.54
2019-01-06T14:11:54.134Z,100232.18
2019-01-06T14:17:25.535Z,100230.20
2019-01-06T14:22:50.543Z,100243.84
2019-01-06T14:28:32.311Z,100246.76
2019-01-06T14:33:51.359Z,100248.36
2019-01-06T14:39:34.818Z,100248.28
2019-01-06T14:45:03.048Z,100257.70
2019-01-06T14:50:37.286Z,100261.64
2019-01-06T14:56:14.142Z,100247.13
2019-01-06T15:01:51.421Z,100256.52
2019-01-06T15:07:24.707Z,100263.44
2019-01-06T15:12:57.149Z,100262.23
2019-01-06T15:18:40.760Z,100268.31
2019-01-06T15:24:10.232Z,100267.85
2019-01-06T15:29:37.948Z,100267.53
2019-01-06T15:35:10.368Z,100266.95
2019-01-06T15:40:48.268Z,100272.74
2019-01-06T15:46:11.902Z,100272.51
2019-01-06T15:51:36.348Z,100275.98
2019-01-06T15:57:07.514Z,100280.78
2019-01-06T16:02:47.598Z,100289.57
2019-01-06T16:08:12.093Z,100291.09
2019-01-06T16:13:40.504Z,100293.38
2019-01-06T16:19:08.268Z,100291.14
2019-01-06T16:24:32.902Z,100290.95
2019-01-06T16:30:16.051Z,100290.45
2019-01-06T16:35:54.518Z,100298.05
2019-01-06T16:41:20.309Z,100297.98
2019-01-06T16:46:57.231Z,100296.22
2019-01-06T16:52:20.890Z,100289.17
2019-01-06T16:57:46.315Z,100283.09
2019-01-06T17:03:15.013Z,100284.34
2019-01-06T17:08:46.602Z,100274.78
2019-01-06T17:14:18.667Z,100275.88
2019-01-06T17:19:46.889Z,100276.11
2019-01-06T17:25:13.085Z,100278.20
2019-01-06T17:30:40.225Z,100280.35
2019-01-06T17:36:09.467Z,100273.86
2019-01-06T17:41:51.292Z,100275.29
2019-01-06T17:47:16.421Z,100277.83
2019-01-06T17:52:42.295Z,100283.44
2019-01-06T17:58:06.052Z,100280.28
2019-01-06T18:03:29.278Z,100289.75
2019-01-06T18:08:59.409Z,100288.20
2019-01-06T18:14:24.312Z,100290.33
2019-01-06T18:19:51.950Z,100290.75
2019-01-06T18:25:37.775Z,100299.30
2019-01-06T18:31:13.156Z,100301.98
2019-01-06T18:36:47.513Z,100299.30
2019-01-06T18:42:14.351Z,100284.48
2019-01-06T18:47:40.114Z,100281.95
2019-01-06T18:53:13.977Z,100283.87
2019-01-06T18:58:35.966Z,100288.27
2019-01-06T19:04:02.045Z,100292.19
2019-01-06T19:09:41.351Z,100298.61
2019-01-06T19:15:20.755Z,100298.31
2019-01-06T19:20:49.040Z,100297.55
2019-01-06T19:26:13.947Z,100300.02
2019-01-06T19:31:37.396Z,100303.52
2019-01-06T19:37:03.887Z,100298.45
2019-01-06T19:42:35.212Z,100297.56
2019-01-06T19:48:18.639Z,100295.94
2019-01-06T19:53:50.803Z,100302.55
2019-01-06T19:59:16.665Z,100297.85
2019-01-06T20:04:38.382Z,100306.59
2019-01-06T20:10:05.029Z,100310.72
2019-01-06T20:15:42.881Z,100309.50
2019-01-06T20:21:23.409Z,100312.78
2019-01-06T20:26:51.096Z,100310.74
2019-01-06T20:32:18.379Z,100307.59
2019-01-06T20:37:41.857Z,100303.05
2019-01-06T20:43:11.044Z,100305.03
2019-01-06T20:48:48.098Z,100306.58
2019-01-06T20:54:15.780Z,100297.52
2019-01-06T20:59:41.641Z,100306.00
2019-01-06T21:05:07.871Z,100300.92
2019-01-06T21:10:42.886Z,100305.11
2019-01-06T21:16:08.770Z,100313.48
2019-01-06T21:21:27.551Z,100319.88
2019-01-06T21:27:01.553Z,100311.28
2019-01-06T21:32:28.995Z,100306.36
2019-01-06T21:37:59.809Z,100316.98
2019-01-06T21:43:24.567Z,100313.84
2019-01-06T21:48:48.427Z,100314.41
2019-01-06T21:54:11.742Z,100300.59
2019-01-06T21:59:35.327Z,100298.78
2019-01-06T22:05:00.857Z,100296.92
2019-01-06T22:10:41.110Z,100299.32
2019-01-06T22:16:04.752Z,100295.27
2019-01-06T22:21:29.311Z,100286.96
2019-01-06T22:26:57.170Z,100287.55
2019-01-06T22:32:25.379Z,100289.22
2019-01-06T22:37:55.274Z,100286.06
2019-01-06T22:43:25.385Z,100276.66
2019-01-06T22:49:02.091Z,100275.58
2019-01-06T22:54:35.668Z,100277.31
2019-01-06T22:59:59.129Z,100291.08
2019-01-06T23:05:22.483Z,100287.33
2019-01-06T23:10:48.217Z,100292.53
2019-01-06T23:16:17.420Z,100301.43
2019-01-06T23:22:02.210Z,100291.36
2019-01-06T23:27:16.704Z,100303.05
2019-01-06T23:32:47.416Z,100308.89
2019-01-06T23:38:27.269Z,100306.43
2019-01-06T23:43:54.932Z,100304.39
2019-01-06T23:49:22.939Z,100293.99
2019-01-06T23:54:56.210Z,100304.79
